createdAt,value
2023-07-17T00:02:16.369Z,22.29
2023-07-17T00:04:44.500Z,22.25
2023-07-17T00:07:13.154Z,22.21
2023-07-17T00:09:41.265Z,22.17
2023-07-17T00:12:09.574Z,22.12
2023-07-17T00:14:37.670Z,22.09
2023-07-17T00:17:05.933Z,22.09
2023-07-17T00:19:34.144Z,22.06
2023-07-17T00:22:02.235Z,22.02
2023-07-17T00:24:30.411Z,22.04
2023-07-17T00:26:58.688Z,22.05
2023-07-17T00:29:31.654Z,22.01
2023-07-17T00:31:59.774Z,22.02
2023-07-17T00:34:28.033Z,22.06
2023-07-17T00:36:56.376Z,22.06
2023-07-17T00:39:25.610Z,22.07
2023-07-17T00:41:53.770Z,22.09
2023-07-17T00:44:21.955Z,22.08
2023-07-17T00:46:51.432Z,22.05
2023-07-17T00:49:21.097Z,22.01
2023-07-17T00:51:49.726Z,21.91
2023-07-17T00:54:19.593Z,21.80
2023-07-17T00:56:48.446Z,21.75
2023-07-17T00:59:17.943Z,21.79
2023-07-17T01:01:46.578Z,21.80
2023-07-17T01:04:15.719Z,21.80
2023-07-17T01:06:44.002Z,21.79
2023-07-17T01:09:13.871Z,21.79
2023-07-17T01:11:41.995Z,21.80
2023-07-17T01:14:19.812Z,21.80
2023-07-17T01:16:50.081Z,21.73
2023-07-17T01:19:19.229Z,21.59
2023-07-17T01:21:54.550Z,21.49
2023-07-17T01:24:22.731Z,21.42
2023-07-17T01:26:52.775Z,21.35
2023-07-17T01:29:21.157Z,21.31
2023-07-17T01:31:49.376Z,21.23
2023-07-17T01:34:17.520Z,21.16
2023-07-17T01:36:45.683Z,21.12
2023-07-17T01:39:14.037Z,21.10
2023-07-17T01:41:43.417Z,21.06
2023-07-17T01:44:11.938Z,21.06
2023-07-17T01:46:40.077Z,21.07
2023-07-17T01:49:09.096Z,21.13
2023-07-17T01:51:38.137Z,21.11
2023-07-17T01:54:07.343Z,21.11
2023-07-17T01:56:35.559Z,21.14
2023-07-17T01:59:03.650Z,21.17
2023-07-17T02:01:34.243Z,21.17
2023-07-17T02:04:03.048Z,21.19
2023-07-17T02:06:31.583Z,21.15
2023-07-17T02:08:59.726Z,21.11
2023-07-17T02:11:30.571Z,21.13
2023-07-17T02:13:58.812Z,21.14
2023-07-17T02:16:27.067Z,21.18
2023-07-17T02:18:55.294Z,21.24
2023-07-17T02:21:23.523Z,21.28
2023-07-17T02:23:51.673Z,21.31
2023-07-17T02:26:20.008Z,21.34
2023-07-17T02:28:48.299Z,21.32
2023-07-17T02:31:16.828Z,21.26
2023-07-17T02:33:45.659Z,21.24
2023-07-17T02:36:13.880Z,21.29
2023-07-17T02:38:45.385Z,21.33
2023-07-17T02:41:17.612Z,21.36
2023-07-17T02:43:46.038Z,21.38
2023-07-17T02:46:14.343Z,21.44
2023-07-17T02:48:42.659Z,21.46
2023-07-17T02:51:10.990Z,21.47
2023-07-17T02:53:39.291Z,21.52
2023-07-17T02:56:09.400Z,21.55
2023-07-17T02:58:44.200Z,21.58
2023-07-17T03:01:12.377Z,21.66
2023-07-17T03:03:41.082Z,21.77
2023-07-17T03:06:09.267Z,21.84
2023-07-17T03:08:37.321Z,21.87
2023-07-17T03:11:05.605Z,22.01
2023-07-17T03:13:35.216Z,22.31
2023-07-17T03:16:03.939Z,22.59
2023-07-17T03:18:33.071Z,22.91
2023-07-17T03:21:01.131Z,23.12
2023-07-17T03:23:29.484Z,23.28
2023-07-17T03:25:58.493Z,23.50
2023-07-17T03:28:26.687Z,23.71
2023-07-17T03:30:57.593Z,23.80
2023-07-17T03:33:26.635Z,23.90
2023-07-17T03:35:54.880Z,24.04
2023-07-17T03:38:23.180Z,24.11
2023-07-17T03:40:52.532Z,24.09
2023-07-17T03:43:21.215Z,24.09
2023-07-17T03:45:52.808Z,24.10
2023-07-17T03:48:21.208Z,24.11
2023-07-17T03:50:50.296Z,24.04
2023-07-17T03:53:19.208Z,23.98
2023-07-17T03:55:47.498Z,23.95
2023-07-17T03:58:15.649Z,23.89
2023-07-17T04:00:44.217Z,23.93
2023-07-17T04:03:13.058Z,24.12
2023-07-17T04:05:43.157Z,24.55
2023-07-17T04:08:11.711Z,24.99
2023-07-17T04:10:39.797Z,25.39
2023-07-17T04:13:08.069Z,25.43
2023-07-17T04:15:37.521Z,25.31
2023-07-17T04:18:06.184Z,25.18
2023-07-17T04:20:38.021Z,24.96
2023-07-17T04:23:07.014Z,24.78
2023-07-17T04:25:38.815Z,24.63
2023-07-17T04:28:06.934Z,24.43
2023-07-17T04:30:38.701Z,24.24
2023-07-17T04:33:09.824Z,24.15
2023-07-17T04:35:39.783Z,24.12
2023-07-17T04:38:08.481Z,24.10
2023-07-17T04:40:36.734Z,24.03
2023-07-17T04:43:04.969Z,23.94
2023-07-17T04:45:34.606Z,23.91
2023-07-17T04:48:06.347Z,23.90
2023-07-17T04:50:34.724Z,23.89
2023-07-17T04:53:02.839Z,23.89
2023-07-17T04:55:30.984Z,23.94
2023-07-17T04:57:59.354Z,23.99
2023-07-17T05:00:27.975Z,24.00
2023-07-17T05:02:58.221Z,24.00
2023-07-17T05:05:29.499Z,23.97
2023-07-17T05:07:57.910Z,23.97
2023-07-17T05:10:26.079Z,23.96
2023-07-17T05:12:54.740Z,23.96
2023-07-17T05:15:23.515Z,23.94
2023-07-17T05:17:52.674Z,23.90
2023-07-17T05:20:20.785Z,23.89
2023-07-17T05:22:48.964Z,23.89
2023-07-17T05:25:17.343Z,23.92
2023-07-17T05:27:47.222Z,23.95
2023-07-17T05:30:17.039Z,23.96
2023-07-17T05:32:45.184Z,24.01
2023-07-17T05:35:14.469Z,24.09
2023-07-17T05:37:43.378Z,24.19
2023-07-17T05:40:12.286Z,24.26
2023-07-17T05:42:40.550Z,24.29
2023-07-17T05:45:09.879Z,24.33
2023-07-17T05:47:39.436Z,24.37
2023-07-17T05:50:08.298Z,24.46
2023-07-17T05:52:37.332Z,24.51
2023-07-17T05:55:06.116Z,24.53
2023-07-17T05:57:34.458Z,24.57
2023-07-17T06:00:05.033Z,24.61
2023-07-17T06:02:44.335Z,24.64
2023-07-17T06:05:12.865Z,24.71
2023-07-17T06:07:41.274Z,24.75
2023-07-17T06:10:11.585Z,24.80
2023-07-17T06:12:43.639Z,24.84
2023-07-17T06:15:14.809Z,24.81
2023-07-17T06:17:43.063Z,24.81
2023-07-17T06:20:11.843Z,24.82
2023-07-17T06:22:39.995Z,24.83
2023-07-17T06:25:08.747Z,24.85
2023-07-17T06:27:36.794Z,24.87
2023-07-17T06:30:05.823Z,24.89
2023-07-17T06:32:34.577Z,25.02
2023-07-17T06:35:02.867Z,25.16
2023-07-17T06:37:30.897Z,25.25
2023-07-17T06:39:59.308Z,25.36
2023-07-17T06:42:27.711Z,25.46
2023-07-17T06:44:58.246Z,25.53
2023-07-17T06:47:36.456Z,25.66
2023-07-17T06:50:06.877Z,25.82
2023-07-17T06:52:35.436Z,25.92
2023-07-17T06:55:05.950Z,26.03
2023-07-17T06:57:34.427Z,26.23
2023-07-17T07:00:02.546Z,26.57
2023-07-17T07:02:31.021Z,27.16
2023-07-17T07:04:59.346Z,27.86
2023-07-17T07:07:27.506Z,28.23
2023-07-17T07:09:55.706Z,28.52
2023-07-17T07:12:24.222Z,28.98
2023-07-17T07:14:53.370Z,29.82
2023-07-17T07:17:21.540Z,30.92
2023-07-17T07:19:51.228Z,31.99
2023-07-17T07:22:19.502Z,32.68
2023-07-17T07:24:48.046Z,33.20
2023-07-17T07:27:17.392Z,34.16
2023-07-17T07:29:45.582Z,34.86
2023-07-17T07:32:13.574Z,35.73
2023-07-17T07:34:42.061Z,36.24
2023-07-17T07:37:10.661Z,36.82
2023-07-17T07:39:38.868Z,37.40
2023-07-17T07:42:08.136Z,37.57
2023-07-17T07:44:36.370Z,37.74
2023-07-17T07:47:06.513Z,38.00
2023-07-17T07:49:34.779Z,38.20
2023-07-17T07:52:03.070Z,38.56
2023-07-17T07:54:31.405Z,38.95
2023-07-17T07:56:59.869Z,38.88
2023-07-17T07:59:28.012Z,38.37
2023-07-17T08:01:56.156Z,37.75
2023-07-17T08:04:24.691Z,37.23
2023-07-17T08:06:53.326Z,37.08
2023-07-17T08:09:21.487Z,36.94
2023-07-17T08:11:49.934Z,36.53
2023-07-17T08:14:18.459Z,35.93
2023-07-17T08:16:46.998Z,35.36
2023-07-17T08:19:15.102Z,35.45
2023-07-17T08:21:43.833Z,35.15
2023-07-17T08:24:12.193Z,34.91
2023-07-17T08:26:41.624Z,34.31
2023-07-17T08:29:09.844Z,33.82
2023-07-17T08:31:38.663Z,33.67
2023-07-17T08:34:06.901Z,33.84
2023-07-17T08:36:34.928Z,33.72
2023-07-17T08:39:06.262Z,33.74
2023-07-17T08:41:36.600Z,33.86
2023-07-17T08:44:05.284Z,33.95
2023-07-17T08:46:34.406Z,34.42
2023-07-17T08:49:03.759Z,34.74
2023-07-17T08:51:32.188Z,34.94
2023-07-17T08:54:27.128Z,35.08
2023-07-17T08:56:52.573Z,35.24
2023-07-17T08:59:21.728Z,35.99
2023-07-17T09:01:53.093Z,36.38
2023-07-17T09:04:22.303Z,36.44
2023-07-17T09:06:52.060Z,36.45
2023-07-17T09:09:20.468Z,36.10
2023-07-17T09:12:08.252Z,36.21
2023-07-17T09:14:37.952Z,36.73
2023-07-17T09:17:09.247Z,37.01
2023-07-17T09:19:38.558Z,37.32
2023-07-17T09:22:08.551Z,37.57
2023-07-17T09:24:38.055Z,37.53
2023-07-17T09:27:08.119Z,37.29
2023-07-17T09:29:43.122Z,37.26
2023-07-17T09:32:17.028Z,37.39
2023-07-17T09:34:45.458Z,37.48
2023-07-17T09:37:13.554Z,37.70
2023-07-17T09:39:42.073Z,37.82
2023-07-17T09:42:24.366Z,37.92
2023-07-17T09:44:53.777Z,38.11
2023-07-17T09:47:22.964Z,38.09
2023-07-17T09:49:55.767Z,37.64
2023-07-17T09:52:25.164Z,37.45
2023-07-17T09:54:53.425Z,37.40
2023-07-17T09:57:29.191Z,37.38
2023-07-17T10:00:06.156Z,37.33
2023-07-17T10:02:39.603Z,37.19
2023-07-17T10:05:08.165Z,37.18
2023-07-17T10:07:44.095Z,37.49
2023-07-17T10:10:12.264Z,37.38
2023-07-17T10:12:42.828Z,37.45
2023-07-17T10:15:12.647Z,37.25
2023-07-17T10:17:42.005Z,37.03
2023-07-17T10:20:13.839Z,36.59
2023-07-17T10:22:46.884Z,36.43
2023-07-17T10:25:20.830Z,36.57
2023-07-17T10:28:02.345Z,36.70
2023-07-17T10:30:37.826Z,36.90
2023-07-17T10:33:07.366Z,37.05
2023-07-17T10:35:52.669Z,37.03
2023-07-17T10:38:29.276Z,36.95
2023-07-17T10:41:14.001Z,36.76
2023-07-17T10:44:17.166Z,36.24
2023-07-17T10:46:47.177Z,35.19
2023-07-17T10:49:17.843Z,35.23
2023-07-17T10:51:47.201Z,35.27
2023-07-17T10:54:19.518Z,35.50
2023-07-17T10:56:49.629Z,35.71
2023-07-17T10:59:19.126Z,35.30
2023-07-17T11:01:47.774Z,34.36
2023-07-17T11:04:18.956Z,34.81
2023-07-17T11:06:47.204Z,34.69
2023-07-17T11:09:17.630Z,34.64
2023-07-17T11:11:47.192Z,34.66
2023-07-17T11:14:19.060Z,34.51
2023-07-17T11:16:47.205Z,34.74
2023-07-17T11:19:16.648Z,34.87
2023-07-17T11:21:49.269Z,35.13
2023-07-17T11:24:17.471Z,35.19
2023-07-17T11:26:45.623Z,34.94
2023-07-17T11:29:14.071Z,34.87
2023-07-17T11:31:42.492Z,35.00
2023-07-17T11:34:12.234Z,35.08
2023-07-17T11:36:44.181Z,34.12
2023-07-17T11:39:14.901Z,34.18
2023-07-17T11:41:50.739Z,33.98
2023-07-17T11:44:26.121Z,33.64
2023-07-17T11:47:01.022Z,34.12
2023-07-17T11:49:29.976Z,33.92
2023-07-17T11:51:58.584Z,33.56
2023-07-17T11:54:30.541Z,33.54
2023-07-17T11:57:04.231Z,33.88
2023-07-17T11:59:33.240Z,33.74
2023-07-17T12:02:01.872Z,33.31
2023-07-17T12:04:36.123Z,33.44
2023-07-17T12:07:05.953Z,33.89
2023-07-17T12:09:34.679Z,33.85
2023-07-17T12:12:02.771Z,33.77
2023-07-17T12:14:30.822Z,34.07
2023-07-17T12:17:00.221Z,34.08
2023-07-17T12:19:28.350Z,34.29
2023-07-17T12:21:56.499Z,34.55
2023-07-17T12:24:25.256Z,34.48
2023-07-17T12:26:53.486Z,33.69
2023-07-17T12:29:21.512Z,33.61
2023-07-17T12:31:50.116Z,33.96
2023-07-17T12:34:18.434Z,34.42
2023-07-17T12:36:46.798Z,34.58
2023-07-17T12:39:16.239Z,34.62
2023-07-17T12:41:45.477Z,34.11
2023-07-17T12:44:13.656Z,33.77
2023-07-17T12:46:41.830Z,33.81
2023-07-17T12:49:09.994Z,33.84
2023-07-17T12:51:37.944Z,33.84
2023-07-17T12:54:06.935Z,34.12
2023-07-17T12:56:35.090Z,34.20
2023-07-17T12:59:03.247Z,34.04
2023-07-17T13:01:31.347Z,34.16
2023-07-17T13:04:00.161Z,34.34
2023-07-17T13:06:28.525Z,34.35
2023-07-17T13:08:56.958Z,34.26
2023-07-17T13:11:25.038Z,34.20
2023-07-17T13:13:53.215Z,34.18
2023-07-17T13:16:21.601Z,34.32
2023-07-17T13:18:50.464Z,34.46
2023-07-17T13:21:18.991Z,34.26
2023-07-17T13:23:47.420Z,33.99
2023-07-17T13:26:15.664Z,33.74
2023-07-17T13:28:43.824Z,33.81
2023-07-17T13:31:12.467Z,33.80
2023-07-17T13:33:40.732Z,33.76
2023-07-17T13:36:08.851Z,33.49
2023-07-17T13:38:37.090Z,33.62
2023-07-17T13:41:21.049Z,33.73
2023-07-17T13:43:49.552Z,33.27
2023-07-17T13:46:17.915Z,33.41
2023-07-17T13:48:46.360Z,33.78
2023-07-17T13:51:14.438Z,33.95
2023-07-17T13:53:42.451Z,34.16
2023-07-17T13:57:02.598Z,34.39
2023-07-17T13:59:03.619Z,34.59
2023-07-17T14:01:32.523Z,34.70
2023-07-17T14:04:02.919Z,34.04
2023-07-17T14:06:32.796Z,33.92
2023-07-17T14:09:01.229Z,34.06
2023-07-17T14:11:31.358Z,34.14
2023-07-17T14:14:02.016Z,34.37
2023-07-17T14:16:31.096Z,34.57
2023-07-17T14:19:01.169Z,34.49
2023-07-17T14:21:29.503Z,34.37
2023-07-17T14:23:58.047Z,34.04
2023-07-17T14:26:26.214Z,33.86
2023-07-17T14:28:54.260Z,33.64
2023-07-17T14:31:22.418Z,33.79
2023-07-17T14:33:50.666Z,34.04
2023-07-17T14:36:19.023Z,34.30
2023-07-17T14:38:47.634Z,34.47
2023-07-17T14:41:15.786Z,34.34
2023-07-17T14:43:43.795Z,33.43
2023-07-17T14:46:12.128Z,32.87
2023-07-17T14:48:40.293Z,33.01
2023-07-17T14:51:08.540Z,33.38
2023-07-17T14:53:36.716Z,33.57
2023-07-17T14:56:05.594Z,33.82
2023-07-17T14:58:33.798Z,34.02
2023-07-17T15:01:02.757Z,34.10
2023-07-17T15:03:31.049Z,34.21
2023-07-17T15:05:59.310Z,34.22
2023-07-17T15:08:27.446Z,34.22
2023-07-17T15:10:56.104Z,34.11
2023-07-17T15:13:26.205Z,34.18
2023-07-17T15:15:56.219Z,34.15
2023-07-17T15:18:24.392Z,34.04
2023-07-17T15:20:52.661Z,33.73
2023-07-17T15:23:20.696Z,32.91
2023-07-17T15:25:48.678Z,32.94
2023-07-17T15:28:17.289Z,32.92
2023-07-17T15:30:45.471Z,32.96
2023-07-17T15:33:13.886Z,32.74
2023-07-17T15:35:41.907Z,32.60
2023-07-17T15:38:10.257Z,32.45
2023-07-17T15:40:38.229Z,32.32
2023-07-17T15:43:06.761Z,32.24
2023-07-17T15:45:35.105Z,32.25
2023-07-17T15:48:03.461Z,32.20
2023-07-17T15:50:31.698Z,32.11
2023-07-17T15:52:59.913Z,31.97
2023-07-17T15:55:28.087Z,31.79
2023-07-17T15:57:56.196Z,31.65
2023-07-17T16:00:24.595Z,31.66
2023-07-17T16:02:53.077Z,31.58
2023-07-17T16:05:21.699Z,31.48
2023-07-17T16:07:50.090Z,31.39
2023-07-17T16:10:18.459Z,31.32
2023-07-17T16:12:46.565Z,31.12
2023-07-17T16:15:14.767Z,30.87
2023-07-17T16:17:42.843Z,30.87
2023-07-17T16:20:11.560Z,31.01
2023-07-17T16:22:39.922Z,31.21
2023-07-17T16:25:08.333Z,31.42
2023-07-17T16:27:36.262Z,31.58
2023-07-17T16:30:05.332Z,31.41
2023-07-17T16:32:33.614Z,31.30
2023-07-17T16:35:01.938Z,31.39
2023-07-17T16:37:30.169Z,31.47
2023-07-17T16:39:58.241Z,31.49
2023-07-17T16:42:26.422Z,31.46
2023-07-17T16:44:54.597Z,31.38
2023-07-17T16:47:22.852Z,31.24
2023-07-17T16:49:51.101Z,31.00
2023-07-17T16:52:19.145Z,30.76
2023-07-17T16:54:47.540Z,30.56
2023-07-17T16:57:15.804Z,30.45
2023-07-17T16:59:43.909Z,30.41
2023-07-17T17:02:12.201Z,30.27
2023-07-17T17:04:40.698Z,30.23
2023-07-17T17:07:08.802Z,30.23
2023-07-17T17:09:37.054Z,30.21
2023-07-17T17:12:05.875Z,30.17
2023-07-17T17:14:34.517Z,30.14
2023-07-17T17:17:02.655Z,30.04
2023-07-17T17:19:30.769Z,29.95
2023-07-17T17:21:58.824Z,29.86
2023-07-17T17:24:27.116Z,29.78
2023-07-17T17:26:55.148Z,29.70
2023-07-17T17:29:23.541Z,29.62
2023-07-17T17:31:52.033Z,29.59
2023-07-17T17:34:20.333Z,29.56
2023-07-17T17:36:48.424Z,29.53
2023-07-17T17:39:16.626Z,29.48
2023-07-17T17:41:45.037Z,29.45
2023-07-17T17:44:13.940Z,29.38
2023-07-17T17:46:42.079Z,29.33
2023-07-17T17:49:11.235Z,29.24
2023-07-17T17:51:39.690Z,29.18
2023-07-17T17:54:08.052Z,29.12
2023-07-17T17:56:36.040Z,29.01
2023-07-17T17:59:04.521Z,28.91
2023-07-17T18:01:32.572Z,28.83
2023-07-17T18:04:02.614Z,28.75
2023-07-17T18:06:31.154Z,28.68
2023-07-17T18:08:59.338Z,28.61
2023-07-17T18:11:27.547Z,28.55
2023-07-17T18:13:59.898Z,28.50
2023-07-17T18:16:27.985Z,28.46
2023-07-17T18:18:57.593Z,28.41
2023-07-17T18:21:25.883Z,28.30
2023-07-17T18:23:54.070Z,28.20
2023-07-17T18:26:22.178Z,28.14
2023-07-17T18:28:50.414Z,28.09
2023-07-17T18:31:18.721Z,28.02
2023-07-17T18:33:47.353Z,27.96
2023-07-17T18:36:16.666Z,27.92
2023-07-17T18:38:44.944Z,27.88
2023-07-17T18:41:13.171Z,27.82
2023-07-17T18:43:41.323Z,27.74
2023-07-17T18:46:09.463Z,27.67
2023-07-17T18:48:37.943Z,27.48
2023-07-17T18:51:06.269Z,27.29
2023-07-17T18:53:34.315Z,27.20
2023-07-17T18:56:02.774Z,27.11
2023-07-17T18:58:30.921Z,27.07
2023-07-17T19:00:59.234Z,27.04
2023-07-17T19:03:27.358Z,27.00
2023-07-17T19:05:57.164Z,26.98
2023-07-17T19:08:27.190Z,26.96
2023-07-17T19:10:55.294Z,26.86
2023-07-17T19:13:23.439Z,26.78
2023-07-17T19:15:52.177Z,26.76
2023-07-17T19:18:20.483Z,26.73
2023-07-17T19:20:48.753Z,26.64
2023-07-17T19:23:17.053Z,26.60
2023-07-17T19:25:45.304Z,26.57
2023-07-17T19:28:13.373Z,26.58
2023-07-17T19:30:41.667Z,26.61
2023-07-17T19:33:09.901Z,26.66
2023-07-17T19:35:38.123Z,26.71
2023-07-17T19:38:06.583Z,26.77
2023-07-17T19:40:34.833Z,26.78
2023-07-17T19:43:02.862Z,26.79
2023-07-17T19:45:30.944Z,26.80
2023-07-17T19:47:59.448Z,26.80
2023-07-17T19:50:28.322Z,26.81
2023-07-17T19:52:56.611Z,26.81
2023-07-17T19:55:24.800Z,26.80
2023-07-17T19:57:53.228Z,26.79
2023-07-17T20:00:21.364Z,26.71
2023-07-17T20:02:49.668Z,26.62
2023-07-17T20:05:17.963Z,26.56
2023-07-17T20:07:46.074Z,26.52
2023-07-17T20:10:15.185Z,26.49
2023-07-17T20:12:43.299Z,26.48
2023-07-17T20:15:11.392Z,26.49
2023-07-17T20:17:40.035Z,26.49
2023-07-17T20:20:11.813Z,26.48
2023-07-17T20:22:41.340Z,26.45
2023-07-17T20:25:11.070Z,26.35
2023-07-17T20:27:43.265Z,26.22
2023-07-17T20:30:13.801Z,26.15
2023-07-17T20:32:42.372Z,26.03
2023-07-17T20:35:26.701Z,25.88
2023-07-17T20:37:57.212Z,25.56
2023-07-17T20:40:25.996Z,25.19
2023-07-17T20:42:55.428Z,24.79
2023-07-17T20:45:34.192Z,24.44
2023-07-17T20:48:02.727Z,24.20
2023-07-17T20:50:30.976Z,24.06
2023-07-17T20:52:59.299Z,24.00
2023-07-17T20:55:27.463Z,23.98
2023-07-17T20:57:55.853Z,23.98
2023-07-17T21:00:24.051Z,23.99
2023-07-17T21:02:52.270Z,23.95
2023-07-17T21:05:25.631Z,23.91
2023-07-17T21:07:53.679Z,23.88
2023-07-17T21:10:21.809Z,23.89
2023-07-17T21:12:52.193Z,23.91
2023-07-17T21:15:20.389Z,23.91
2023-07-17T21:17:48.664Z,23.90
2023-07-17T21:20:16.827Z,23.88
2023-07-17T21:22:44.932Z,23.87
2023-07-17T21:25:13.400Z,23.87
2023-07-17T21:27:41.508Z,23.88
2023-07-17T21:30:10.581Z,23.87
2023-07-17T21:32:38.983Z,23.84
2023-07-17T21:35:07.774Z,23.84
2023-07-17T21:37:35.909Z,23.86
2023-07-17T21:40:04.604Z,23.87
2023-07-17T21:42:33.164Z,23.90
2023-07-17T21:45:02.264Z,23.96
2023-07-17T21:47:30.427Z,24.01
2023-07-17T21:49:58.752Z,24.06
2023-07-17T21:52:27.435Z,24.10
2023-07-17T21:54:55.798Z,24.08
2023-07-17T21:57:24.307Z,24.04
2023-07-17T21:59:54.275Z,23.96
2023-07-17T22:02:22.868Z,23.89
2023-07-17T22:04:51.090Z,23.77
2023-07-17T22:07:19.161Z,23.56
2023-07-17T22:09:51.382Z,23.34
2023-07-17T22:12:20.447Z,23.20
2023-07-17T22:14:52.570Z,23.18
2023-07-17T22:17:22.541Z,23.20
2023-07-17T22:19:52.750Z,23.22
2023-07-17T22:22:21.370Z,23.24
2023-07-17T22:24:51.310Z,23.27
2023-07-17T22:27:19.733Z,23.22
2023-07-17T22:29:48.302Z,23.15
2023-07-17T22:32:17.161Z,23.09
2023-07-17T22:34:46.932Z,23.05
2023-07-17T22:37:19.195Z,23.05
2023-07-17T22:39:48.025Z,23.09
2023-07-17T22:42:19.267Z,23.16
2023-07-17T22:44:47.443Z,23.15
2023-07-17T22:47:15.625Z,23.13
2023-07-17T22:49:43.660Z,23.10
2023-07-17T22:52:11.755Z,23.04
2023-07-17T22:54:40.288Z,22.98
2023-07-17T22:57:08.447Z,22.91
2023-07-17T22:59:37.326Z,22.85
2023-07-17T23:02:06.756Z,22.80
2023-07-17T23:04:35.100Z,22.75
2023-07-17T23:07:03.687Z,22.70
2023-07-17T23:09:33.603Z,22.65
2023-07-17T23:12:01.855Z,22.63
2023-07-17T23:14:33.672Z,22.61
2023-07-17T23:17:05.108Z,22.58
2023-07-17T23:19:33.207Z,22.54
2023-07-17T23:22:01.289Z,22.51
2023-07-17T23:24:29.413Z,22.48
2023-07-17T23:26:57.429Z,22.44
2023-07-17T23:29:25.882Z,22.40
2023-07-17T23:31:53.970Z,22.36
2023-07-17T23:34:22.379Z,22.32
2023-07-17T23:36:50.597Z,22.29
2023-07-17T23:39:22.283Z,22.26
2023-07-17T23:41:51.063Z,22.22
2023-07-17T23:44:19.121Z,22.18
2023-07-17T23:46:47.172Z,22.13
2023-07-17T23:49:15.299Z,22.14
2023-07-17T23:51:44.694Z,22.14
2023-07-17T23:54:13.818Z,22.15
2023-07-17T23:56:42.993Z,22.16
2023-07-17T23:59:11.411Z,22.17
